Time;durP1;ratioP1;P1;durP2;ratioP2;P2;SDS_P1;SDS_P2;PMS_P1;PMS_P2;Temp;Humidity;BMP_temperature;BMP_pressure;BME280_temperature;BME280_humidity;BME280_pressure;Samples;Min_cycle;Max_cycle;Signal;HPM_P1;HPM_P2
2023/12/12 00:00:29;;;;;;;3.87;1.57;;;8.00;99.90;;;;;;5052234;28;20186;-72
2023/12/12 00:03:04;;;;;;;8.17;1.60;;;7.90;99.90;;;;;;5069078;28;20205;-72
2023/12/12 00:05:30;;;;;;;9.47;2.00;;;7.90;99.90;;;;;;5070291;28;20802;-72
2023/12/12 00:07:56;;;;;;;5.73;1.10;;;7.80;99.90;;;;;;5069902;28;20432;-72
2023/12/12 00:10:22;;;;;;;6.30;1.50;;;7.80;99.90;;;;;;5067926;28;20183;-72
2023/12/12 00:12:47;;;;;;;5.97;1.27;;;7.80;99.90;;;;;;5069425;28;20974;-72
2023/12/12 00:15:13;;;;;;;5.53;1.23;;;7.70;99.90;;;;;;5069414;28;20183;-72
2023/12/12 00:17:39;;;;;;;6.73;1.27;;;7.70;99.90;;;;;;5069068;28;20199;-72
2023/12/12 00:20:08;;;;;;;8.13;1.23;;;7.70;99.90;;;;;;5051122;28;20179;-72
2023/12/12 00:22:34;;;;;;;10.63;2.30;;;7.80;99.90;;;;;;5068924;28;20237;-71
2023/12/12 00:24:59;;;;;;;322.83;140.40;;;7.80;99.90;;;;;;5069049;28;20834;-72
2023/12/12 00:27:25;;;;;;;7.37;2.57;;;7.80;99.90;;;;;;5068880;28;20443;-72
2023/12/12 00:29:51;;;;;;;11.17;1.93;;;7.80;99.90;;;;;;5067870;28;20530;-71
2023/12/12 00:32:16;;;;;;;4.60;2.13;;;7.60;99.90;;;;;;5069560;28;20258;-72
2023/12/12 00:34:42;;;;;;;4.80;1.73;;;7.60;99.90;;;;;;5072937;28;20179;-72
2023/12/12 00:37:07;;;;;;;4.30;1.50;;;7.50;99.90;;;;;;5072845;28;20286;-71
2023/12/12 00:39:40;;;;;;;16.33;2.33;;;7.50;99.90;;;;;;5054882;28;20186;-71
2023/12/12 00:42:08;;;;;;;14.30;1.50;;;7.50;99.90;;;;;;5054936;28;20651;-71
2023/12/12 00:44:35;;;;;;;4.83;1.47;;;7.40;99.90;;;;;;5072563;28;20978;-72
2023/12/12 00:47:00;;;;;;;4.30;1.40;;;7.50;99.90;;;;;;5071107;28;20472;-72
2023/12/12 00:49:26;;;;;;;4.37;1.20;;;7.60;99.90;;;;;;5071459;28;20410;-72
2023/12/12 00:51:51;;;;;;;10.87;1.63;;;7.70;99.90;;;;;;5054414;28;20187;-72
2023/12/12 00:54:17;;;;;;;6.47;1.77;;;7.80;99.90;;;;;;5071489;28;20207;-71
2023/12/12 00:56:47;;;;;;;15.70;2.57;;;7.80;99.90;;;;;;5072962;28;20207;-72
2023/12/12 00:59:13;;;;;;;3.90;1.30;;;7.90;99.90;;;;;;5071605;28;20172;-72
2023/12/12 01:01:39;;;;;;;8.67;1.13;;;7.90;99.90;;;;;;5072725;28;20508;-72
2023/12/12 01:04:04;;;;;;;2.20;1.20;;;7.80;99.90;;;;;;5071401;28;21077;-72
2023/12/12 01:06:30;;;;;;;2.37;1.30;;;7.60;99.90;;;;;;5071138;28;20206;-72
2023/12/12 01:08:56;;;;;;;6.67;1.87;;;7.50;99.90;;;;;;5072585;28;20734;-72
2023/12/12 01:11:21;;;;;;;4.90;1.63;;;7.60;99.90;;;;;;5071402;28;20183;-72
2023/12/12 01:13:48;;;;;;;6.27;1.10;;;7.60;99.90;;;;;;5072626;28;20184;-72
2023/12/12 01:16:13;;;;;;;2.73;1.23;;;7.70;99.90;;;;;;5054435;28;20221;-72
2023/12/12 01:18:39;;;;;;;7.27;1.20;;;7.90;99.90;;;;;;5071057;28;20916;-72
2023/12/12 01:21:05;;;;;;;4.83;1.63;;;8.10;99.90;;;;;;5071195;28;20183;-72
2023/12/12 01:23:54;;;;;;;6.30;1.10;;;8.20;99.90;;;;;;5070935;28;20310;-72
2023/12/12 01:26:22;;;;;;;5.43;1.27;;;8.20;99.90;;;;;;5072162;28;20433;-72
2023/12/12 01:28:48;;;;;;;6.73;1.13;;;8.30;99.90;;;;;;5070859;28;20413;-72
2023/12/12 01:31:15;;;;;;;6.90;1.57;;;8.30;99.90;;;;;;5070873;28;20475;-72
2023/12/12 01:33:41;;;;;;;9.03;1.63;;;8.30;99.90;;;;;;5072076;28;20432;-72
2023/12/12 01:36:07;;;;;;;7.10;1.10;;;8.40;99.90;;;;;;5071672;28;20434;-72
2023/12/12 01:38:32;;;;;;;2.53;0.90;;;8.40;99.90;;;;;;5071972;28;20441;-72
2023/12/12 01:40:58;;;;;;;5.43;1.53;;;8.40;99.90;;;;;;5070507;28;20208;-72
2023/12/12 01:43:29;;;;;;;3.73;1.23;;;8.40;99.90;;;;;;5071216;28;20222;-72
2023/12/12 01:45:59;;;;;;;6.30;1.17;;;8.40;99.90;;;;;;5071284;28;20670;-72
2023/12/12 01:48:26;;;;;;;3.33;1.40;;;8.20;99.90;;;;;;5071875;28;20479;-71
2023/12/12 01:50:53;;;;;;;5.83;1.03;;;8.10;99.90;;;;;;5070474;28;20434;-73
2023/12/12 01:53:26;;;;;;;3.97;1.33;;;8.00;99.90;;;;;;5070547;28;20426;-72
2023/12/12 01:55:53;;;;;;;8.10;1.30;;;7.90;99.90;;;;;;5071684;28;20436;-72
2023/12/12 01:58:20;;;;;;;4.27;0.90;;;7.70;99.90;;;;;;5071831;28;20443;-72
2023/12/12 02:00:47;;;;;;;7.00;1.33;;;7.60;99.90;;;;;;5071605;28;20418;-73
2023/12/12 02:03:13;;;;;;;2.60;1.17;;;7.60;99.90;;;;;;5069943;28;20844;-74
2023/12/12 02:05:41;;;;;;;2.37;1.07;;;7.60;99.90;;;;;;5071360;28;20423;-73
2023/12/12 02:08:07;;;;;;;3.07;1.00;;;7.70;99.90;;;;;;5069857;28;20433;-73
2023/12/12 02:10:33;;;;;;;2.60;1.00;;;7.70;99.90;;;;;;5071576;28;21010;-71
2023/12/12 02:12:59;;;;;;;4.30;1.10;;;7.70;99.90;;;;;;5069648;28;20662;-72
2023/12/12 02:15:25;;;;;;;2.43;1.10;;;7.70;99.90;;;;;;5069600;28;20429;-73
2023/12/12 02:17:50;;;;;;;4.27;1.50;;;7.60;99.90;;;;;;5071380;28;20201;-73
2023/12/12 02:20:16;;;;;;;5.70;1.20;;;7.50;99.90;;;;;;5070784;28;20417;-72
2023/12/12 02:22:42;;;;;;;5.83;0.87;;;7.40;99.90;;;;;;5070503;28;20211;-73
2023/12/12 02:25:08;;;;;;;4.90;1.47;;;7.20;99.90;;;;;;5070411;28;20263;-72
2023/12/12 02:27:35;;;;;;;3.83;0.97;;;7.20;99.90;;;;;;5070426;28;20520;-73
2023/12/12 02:30:01;;;;;;;2.93;0.97;;;7.20;99.90;;;;;;5068801;28;20411;-72
2023/12/12 02:32:29;;;;;;;7.07;1.77;;;7.10;99.90;;;;;;5068861;28;20424;-72
2023/12/12 02:34:54;;;;;;;3.70;1.30;;;7.10;99.90;;;;;;5070100;28;20499;-72
2023/12/12 02:37:20;;;;;;;3.57;1.30;;;7.00;99.90;;;;;;5070227;28;20895;-72
2023/12/12 02:39:45;;;;;;;3.83;1.13;;;7.00;99.90;;;;;;5070072;28;20282;-72
2023/12/12 02:42:11;;;;;;;2.17;1.10;;;6.90;99.90;;;;;;5068599;28;20588;-72
2023/12/12 02:44:37;;;;;;;6.77;1.07;;;6.80;99.90;;;;;;5068640;28;20219;-72
2023/12/12 02:47:02;;;;;;;3.50;1.20;;;6.70;99.90;;;;;;5068434;28;20248;-72
2023/12/12 02:49:28;;;;;;;4.83;1.17;;;6.70;99.90;;;;;;5068365;28;20763;-72
2023/12/12 02:51:53;;;;;;;5.93;1.37;;;6.90;99.90;;;;;;5068247;28;20190;-72
2023/12/12 02:54:19;;;;;;;3.27;1.13;;;7.20;99.90;;;;;;5069351;28;20724;-72
2023/12/12 02:56:44;;;;;;;3.10;1.23;;;7.40;99.90;;;;;;5069101;28;20534;-72
2023/12/12 02:59:10;;;;;;;4.03;1.20;;;7.40;99.90;;;;;;5051518;28;20191;-71
2023/12/12 03:01:36;;;;;;;6.03;2.67;;;7.40;99.90;;;;;;5069907;28;20184;-72
2023/12/12 03:04:01;;;;;;;3.07;0.97;;;7.40;99.90;;;;;;5069989;28;20676;-73
2023/12/12 03:06:27;;;;;;;6.30;1.50;;;7.30;99.90;;;;;;5052361;28;20215;-72
2023/12/12 03:08:52;;;;;;;4.53;0.97;;;7.30;99.90;;;;;;5070636;28;20175;-72
2023/12/12 03:11:18;;;;;;;3.37;1.00;;;7.10;99.90;;;;;;5069063;28;20598;-72
2023/12/12 03:13:43;;;;;;;2.10;1.07;;;7.00;99.90;;;;;;5068747;28;20214;-72
2023/12/12 03:16:09;;;;;;;5.83;0.83;;;7.00;99.90;;;;;;5070246;28;20242;-72
2023/12/12 03:18:35;;;;;;;8.53;1.00;;;6.90;99.90;;;;;;5052162;28;20266;-72
2023/12/12 03:21:00;;;;;;;3.27;1.20;;;6.90;99.90;;;;;;5068681;28;20561;-72
2023/12/12 03:23:27;;;;;;;1.70;0.90;;;6.80;99.90;;;;;;5069862;28;20301;-72
2023/12/12 03:25:52;;;;;;;5.73;1.30;;;6.80;99.90;;;;;;5069784;28;20186;-72
2023/12/12 03:28:18;;;;;;;3.00;0.97;;;6.70;99.90;;;;;;5069834;28;20414;-73
2023/12/12 03:30:44;;;;;;;3.23;1.20;;;6.70;99.90;;;;;;5069958;28;20190;-73
2023/12/12 03:33:09;;;;;;;4.80;1.33;;;6.70;99.90;;;;;;5069904;28;20547;-71
2023/12/12 03:35:35;;;;;;;3.83;0.90;;;6.60;99.90;;;;;;5069906;28;20425;-71
2023/12/12 03:38:00;;;;;;;3.63;1.27;;;6.70;99.90;;;;;;5068539;28;20210;-71
2023/12/12 03:40:26;;;;;;;4.40;1.00;;;6.90;99.90;;;;;;5069762;28;20246;-73
2023/12/12 03:42:52;;;;;;;2.40;1.00;;;7.00;99.90;;;;;;5068481;28;20756;-71
2023/12/12 03:45:17;;;;;;;9.40;1.07;;;7.30;99.90;;;;;;5069783;28;20220;-70
2023/12/12 03:47:44;;;;;;;4.23;0.93;;;7.40;99.90;;;;;;5068236;28;20438;-72
2023/12/12 03:50:10;;;;;;;4.37;1.03;;;7.30;99.90;;;;;;5069739;28;20179;-72
2023/12/12 03:52:35;;;;;;;2.63;1.03;;;7.30;99.90;;;;;;5069683;28;20413;-72
2023/12/12 03:55:01;;;;;;;5.07;1.13;;;7.20;99.90;;;;;;5069512;28;20520;-72
2023/12/12 03:57:26;;;;;;;7.17;1.23;;;7.10;99.90;;;;;;5069529;28;20217;-72
2023/12/12 03:59:52;;;;;;;4.57;1.50;;;7.00;99.90;;;;;;5069910;28;20232;-72
2023/12/12 04:02:17;;;;;;;7.13;1.20;;;6.90;99.90;;;;;;5069008;28;20266;-73
2023/12/12 04:04:43;;;;;;;1.90;0.70;;;6.90;99.90;;;;;;5068438;28;20222;-72
2023/12/12 04:07:09;;;;;;;6.77;1.10;;;6.90;99.90;;;;;;5069259;28;20249;-73
2023/12/12 04:09:34;;;;;;;3.27;1.10;;;6.80;99.90;;;;;;5070096;28;20179;-72
2023/12/12 04:12:00;;;;;;;3.43;0.80;;;6.90;99.90;;;;;;5068751;28;20217;-72
2023/12/12 04:14:25;;;;;;;9.87;1.10;;;6.80;99.90;;;;;;5070054;28;20195;-72
2023/12/12 04:16:51;;;;;;;3.73;1.10;;;6.80;99.90;;;;;;5069949;28;20199;-72
2023/12/12 04:19:16;;;;;;;0.90;0.70;;;6.90;99.90;;;;;;5068719;28;20187;-72
2023/12/12 04:21:43;;;;;;;1.93;0.77;;;6.90;99.90;;;;;;5069990;28;20183;-72
2023/12/12 04:24:08;;;;;;;3.40;0.90;;;7.00;99.90;;;;;;5069635;28;20311;-72
2023/12/12 04:26:34;;;;;;;5.80;1.10;;;7.00;99.90;;;;;;5069617;28;21339;-72
2023/12/12 04:29:00;;;;;;;7.90;0.80;;;7.10;99.90;;;;;;5069239;28;20208;-72
2023/12/12 04:31:26;;;;;;;1.87;1.00;;;7.10;99.90;;;;;;5067847;28;20187;-72
2023/12/12 04:33:51;;;;;;;1.30;1.00;;;7.10;99.90;;;;;;5067643;28;20184;-73
2023/12/12 04:36:17;;;;;;;2.20;0.90;;;7.10;99.90;;;;;;5069557;28;20463;-72
2023/12/12 04:38:43;;;;;;;2.20;1.13;;;7.10;99.90;;;;;;5067434;28;20205;-72
2023/12/12 04:41:08;;;;;;;2.50;1.90;;;7.10;99.90;;;;;;5067435;28;20213;-72
2023/12/12 04:43:35;;;;;;;3.63;1.60;;;7.10;99.90;;;;;;5068649;28;20232;-73
2023/12/12 04:46:00;;;;;;;1.37;0.80;;;7.10;99.90;;;;;;5067482;28;20549;-73
2023/12/12 04:48:27;;;;;;;1.47;0.60;;;7.10;99.90;;;;;;5068559;28;20501;-72
2023/12/12 04:50:52;;;;;;;1.20;0.70;;;7.20;99.90;;;;;;5068970;28;20226;-72
2023/12/12 04:53:18;;;;;;;4.60;1.20;;;7.30;99.90;;;;;;5068707;28;20409;-72
2023/12/12 04:55:43;;;;;;;1.87;0.80;;;7.40;99.90;;;;;;5067239;28;20293;-73
2023/12/12 04:58:09;;;;;;;1.27;0.70;;;7.40;99.90;;;;;;5067756;28;20268;-73
2023/12/12 05:00:34;;;;;;;2.13;0.67;;;7.40;99.90;;;;;;5067328;28;20246;-73
2023/12/12 05:03:00;;;;;;;4.33;0.70;;;7.40;99.90;;;;;;5049379;28;20206;-71
2023/12/12 05:05:26;;;;;;;2.70;0.60;;;7.40;99.90;;;;;;5066044;28;20187;-73
2023/12/12 05:07:51;;;;;;;2.30;0.67;;;7.40;99.90;;;;;;5065731;28;20210;-73
2023/12/12 05:10:17;;;;;;;1.60;0.90;;;7.40;99.90;;;;;;5049042;28;20369;-73
2023/12/12 05:12:43;;;;;;;5.93;0.87;;;7.40;99.90;;;;;;5067175;28;20180;-72
2023/12/12 05:15:09;;;;;;;1.20;0.80;;;7.40;99.90;;;;;;5065456;28;20191;-73
2023/12/12 05:17:34;;;;;;;1.57;0.97;;;7.40;99.90;;;;;;5065761;28;20708;-72
2023/12/12 05:20:00;;;;;;;1.87;0.90;;;7.50;99.90;;;;;;5070299;28;20442;-73
2023/12/12 05:22:26;;;;;;;1.27;0.70;;;7.50;99.90;;;;;;5070507;28;20194;-73
2023/12/12 05:24:52;;;;;;;1.50;0.77;;;7.60;99.90;;;;;;5069392;28;20700;-72
2023/12/12 05:27:17;;;;;;;1.63;0.70;;;7.60;99.90;;;;;;5070578;28;20294;-73
2023/12/12 05:29:43;;;;;;;0.70;0.60;;;7.70;99.90;;;;;;5069310;28;20471;-73
2023/12/12 05:32:09;;;;;;;1.20;0.80;;;7.70;99.90;;;;;;5052553;28;20183;-74
2023/12/12 05:34:35;;;;;;;0.80;0.60;;;7.60;99.90;;;;;;5069418;28;20691;-73
2023/12/12 05:37:00;;;;;;;1.57;0.70;;;7.60;99.90;;;;;;5069198;28;20230;-74
2023/12/12 05:39:26;;;;;;;0.77;0.60;;;7.70;99.90;;;;;;5069354;28;20472;-73
2023/12/12 05:41:51;;;;;;;2.50;0.90;;;7.70;99.90;;;;;;5070874;28;20286;-73
2023/12/12 05:44:17;;;;;;;1.27;0.90;;;7.70;99.90;;;;;;5070846;28;20206;-73
2023/12/12 05:46:43;;;;;;;1.93;1.00;;;7.60;99.90;;;;;;5070746;28;20238;-73
2023/12/12 05:49:11;;;;;;;1.20;1.10;;;7.60;99.90;;;;;;5069261;28;20267;-73
2023/12/12 05:51:39;;;;;;;1.40;1.20;;;7.60;99.90;;;;;;5069342;28;20179;-73
2023/12/12 05:54:06;;;;;;;1.70;1.20;;;7.60;99.90;;;;;;5070278;28;20418;-73
2023/12/12 05:56:32;;;;;;;1.33;1.10;;;7.60;99.90;;;;;;5069409;28;20814;-72
2023/12/12 05:58:58;;;;;;;1.33;1.23;;;7.60;99.90;;;;;;5070439;28;20417;-74
2023/12/12 06:01:23;;;;;;;1.83;1.13;;;7.70;99.90;;;;;;5069504;28;20187;-73
2023/12/12 06:03:49;;;;;;;1.50;1.40;;;7.70;99.90;;;;;;5070533;28;20456;-73
2023/12/12 06:06:14;;;;;;;1.50;1.30;;;7.70;99.90;;;;;;5070642;28;20196;-73
2023/12/12 06:08:41;;;;;;;1.67;1.23;;;7.70;99.90;;;;;;5069208;28;20637;-73
2023/12/12 06:11:07;;;;;;;1.40;1.30;;;7.70;99.90;;;;;;5070549;28;20711;-73
2023/12/12 06:13:32;;;;;;;1.97;1.40;;;7.80;99.90;;;;;;5070389;28;20426;-73
2023/12/12 06:15:58;;;;;;;1.83;1.57;;;7.80;99.90;;;;;;5069055;28;20195;-73
2023/12/12 06:18:25;;;;;;;1.63;1.53;;;7.80;99.90;;;;;;5068769;28;20782;-74
2023/12/12 06:20:51;;;;;;;1.47;1.37;;;7.80;99.90;;;;;;5068617;28;20265;-74
2023/12/12 06:23:17;;;;;;;2.60;1.37;;;7.80;99.90;;;;;;5069730;28;20962;-74
2023/12/12 06:25:43;;;;;;;1.70;1.60;;;7.80;99.90;;;;;;5068536;28;20599;-73
2023/12/12 06:28:08;;;;;;;3.03;1.67;;;7.80;99.90;;;;;;5070055;28;20520;-73
2023/12/12 06:30:34;;;;;;;1.63;1.53;;;7.90;99.90;;;;;;5068905;28;20190;-73
2023/12/12 06:33:00;;;;;;;1.80;1.70;;;8.00;99.90;;;;;;5069444;28;20673;-74
2023/12/12 06:35:25;;;;;;;2.03;1.83;;;8.00;99.90;;;;;;5069476;28;20218;-73
2023/12/12 06:37:51;;;;;;;3.33;2.23;;;8.00;99.90;;;;;;5068262;28;20244;-73
2023/12/12 06:40:17;;;;;;;2.97;2.17;;;8.00;99.90;;;;;;5068933;28;20210;-72
2023/12/12 06:42:44;;;;;;;3.03;2.30;;;8.00;99.90;;;;;;5067382;28;20481;-73
2023/12/12 06:45:10;;;;;;;1.27;1.17;;;8.00;99.90;;;;;;5067639;28;20288;-72
2023/12/12 06:47:36;;;;;;;2.13;1.90;;;8.10;99.90;;;;;;5067119;28;20446;-72
2023/12/12 06:50:04;;;;;;;4.30;3.40;;;8.10;99.90;;;;;;5069328;28;20418;-72
2023/12/12 06:52:30;;;;;;;3.20;2.47;;;8.10;99.90;;;;;;5068965;28;20788;-72
2023/12/12 06:54:55;;;;;;;2.57;2.33;;;8.10;99.90;;;;;;5069340;28;20528;-73
2023/12/12 06:57:21;;;;;;;1.63;1.50;;;8.10;99.90;;;;;;5068784;28;20553;-72
2023/12/12 06:59:47;;;;;;;2.13;1.80;;;8.10;99.90;;;;;;5067340;28;20179;-71
2023/12/12 07:02:12;;;;;;;2.13;1.77;;;8.10;99.90;;;;;;5068705;28;20187;-73
2023/12/12 07:04:38;;;;;;;2.07;1.67;;;8.10;99.90;;;;;;5068616;28;20265;-73
2023/12/12 07:07:04;;;;;;;1.53;1.43;;;8.10;99.90;;;;;;5068590;28;20195;-73
2023/12/12 07:09:30;;;;;;;2.23;2.03;;;8.20;99.90;;;;;;5066826;28;20189;-73
2023/12/12 07:11:55;;;;;;;1.57;1.37;;;8.20;99.90;;;;;;5066925;28;20417;-73
2023/12/12 07:14:21;;;;;;;1.70;1.60;;;8.30;99.90;;;;;;5068771;28;20239;-72
2023/12/12 07:16:47;;;;;;;1.83;1.50;;;8.20;99.90;;;;;;5067131;28;20208;-73
2023/12/12 07:19:12;;;;;;;3.97;1.90;;;8.30;99.90;;;;;;5067705;28;20248;-73
2023/12/12 07:21:39;;;;;;;1.30;1.20;;;8.40;99.90;;;;;;5067761;28;20198;-73
2023/12/12 07:24:05;;;;;;;1.07;0.97;;;8.40;99.90;;;;;;5067264;28;20222;-73
2023/12/12 07:26:30;;;;;;;2.00;1.80;;;8.50;99.90;;;;;;5067262;28;20525;-73
2023/12/12 07:28:57;;;;;;;2.77;1.90;;;8.60;99.90;;;;;;5068773;28;20270;-73
2023/12/12 07:31:23;;;;;;;1.07;0.97;;;8.60;99.90;;;;;;5067423;28;20171;-73
2023/12/12 07:33:48;;;;;;;1.17;1.07;;;8.70;99.90;;;;;;5067182;28;20452;-74
2023/12/12 07:36:14;;;;;;;0.93;0.83;;;8.70;99.90;;;;;;5068438;28;20235;-73
2023/12/12 07:38:39;;;;;;;1.10;1.00;;;8.70;99.90;;;;;;5068612;28;20242;-74
2023/12/12 07:41:06;;;;;;;2.63;1.20;;;8.70;99.90;;;;;;5068434;28;20728;-72
2023/12/12 07:43:31;;;;;;;0.90;0.80;;;8.80;99.90;;;;;;5066751;28;20571;-72
2023/12/12 07:45:57;;;;;;;1.30;1.20;;;8.80;99.90;;;;;;5068307;28;20509;-72
2023/12/12 07:48:22;;;;;;;3.23;1.10;;;8.80;99.90;;;;;;5066967;28;20265;-73
2023/12/12 07:50:48;;;;;;;1.13;1.03;;;8.80;99.90;;;;;;5068335;28;20179;-73
2023/12/12 07:53:14;;;;;;;1.07;0.97;;;8.80;99.90;;;;;;5066719;28;20668;-72
2023/12/12 07:55:39;;;;;;;1.40;0.97;;;8.80;99.90;;;;;;5066810;28;20203;-73
2023/12/12 07:58:05;;;;;;;1.00;0.90;;;8.80;99.90;;;;;;5050226;28;20976;-72
2023/12/12 08:00:31;;;;;;;1.20;0.87;;;8.80;99.90;;;;;;5068058;28;20181;-74
2023/12/12 08:02:56;;;;;;;0.90;0.80;;;8.80;99.90;;;;;;5068491;28;20207;-74
2023/12/12 08:05:22;;;;;;;1.03;0.83;;;8.90;99.90;;;;;;5033849;28;20191;-73
2023/12/12 08:07:48;;;;;;;1.80;1.17;;;8.90;99.90;;;;;;5066562;28;20232;-73
2023/12/12 08:10:14;;;;;;;0.80;0.63;;;9.00;99.90;;;;;;5066761;28;20175;-74
2023/12/12 08:12:39;;;;;;;0.90;0.70;;;9.00;99.90;;;;;;5068189;28;20424;-74
2023/12/12 08:15:05;;;;;;;1.47;0.70;;;9.00;99.90;;;;;;5066264;28;20195;-73
2023/12/12 08:17:31;;;;;;;1.37;0.80;;;9.00;99.90;;;;;;5067790;28;20215;-75
2023/12/12 08:19:57;;;;;;;0.87;0.60;;;9.10;99.90;;;;;;5067808;28;20429;-74
2023/12/12 08:22:22;;;;;;;0.70;0.50;;;9.10;99.90;;;;;;5066382;28;20341;-73
2023/12/12 08:24:50;;;;;;;1.50;0.87;;;9.10;99.90;;;;;;5066377;28;20222;-74
2023/12/12 08:27:18;;;;;;;1.77;0.90;;;9.20;99.90;;;;;;5066343;28;20196;-74
2023/12/12 08:29:45;;;;;;;1.27;0.80;;;9.20;99.90;;;;;;5067695;28;20453;-74
2023/12/12 08:32:11;;;;;;;1.33;1.00;;;9.20;99.90;;;;;;5067621;28;20433;-76
2023/12/12 08:34:36;;;;;;;1.57;0.90;;;9.20;99.90;;;;;;5067699;28;20437;-74
2023/12/12 08:37:03;;;;;;;1.40;0.70;;;9.20;99.90;;;;;;5067608;28;20453;-73
2023/12/12 08:39:31;;;;;;;0.90;0.67;;;9.20;99.90;;;;;;5066313;28;20269;-73
2023/12/12 08:41:57;;;;;;;1.00;0.70;;;9.20;99.90;;;;;;5066121;28;20434;-73
2023/12/12 08:44:23;;;;;;;2.10;1.00;;;9.30;99.90;;;;;;5066209;28;20469;-73
2023/12/12 08:46:50;;;;;;;1.00;0.87;;;9.30;99.90;;;;;;5067254;28;20976;-73
2023/12/12 08:49:19;;;;;;;0.80;0.70;;;9.40;99.90;;;;;;5065650;28;20425;-73
2023/12/12 08:51:44;;;;;;;0.80;0.40;;;9.40;99.90;;;;;;5067558;28;20912;-73
2023/12/12 08:54:10;;;;;;;0.90;0.67;;;9.50;99.90;;;;;;5068248;28;20601;-73
2023/12/12 08:56:40;;;;;;;0.70;0.50;;;9.50;99.90;;;;;;5071450;28;20282;-73
2023/12/12 08:59:06;;;;;;;0.90;0.60;;;9.40;99.90;;;;;;5071553;28;20321;-73
2023/12/12 09:01:32;;;;;;;0.70;0.50;;;9.50;99.90;;;;;;5071304;28;20508;-73
2023/12/12 09:03:57;;;;;;;0.70;0.50;;;9.50;99.90;;;;;;5069998;28;20465;-73
2023/12/12 09:06:23;;;;;;;1.97;0.60;;;9.50;99.90;;;;;;5071406;28;20213;-72
2023/12/12 09:08:48;;;;;;;0.73;0.40;;;9.50;99.90;;;;;;5069998;28;20338;-73
2023/12/12 09:11:14;;;;;;;0.90;0.50;;;9.50;99.90;;;;;;5071079;28;20205;-73
2023/12/12 09:13:43;;;;;;;0.80;0.53;;;9.50;99.90;;;;;;5069355;28;20275;-73
2023/12/12 09:16:09;;;;;;;0.90;0.50;;;9.50;99.90;;;;;;5069136;28;20589;-73
2023/12/12 09:18:34;;;;;;;0.90;0.57;;;9.40;99.90;;;;;;5069119;28;20427;-74
2023/12/12 09:21:00;;;;;;;0.73;0.50;;;9.50;99.90;;;;;;5070389;28;20433;-73
2023/12/12 09:23:30;;;;;;;0.70;0.60;;;9.50;99.90;;;;;;5070147;28;20314;-74
2023/12/12 09:25:55;;;;;;;0.90;0.60;;;9.50;99.90;;;;;;5068879;28;20175;-73
2023/12/12 09:28:24;;;;;;;0.70;0.50;;;9.50;99.90;;;;;;5068897;28;21319;-73
2023/12/12 09:30:50;;;;;;;0.93;0.50;;;9.50;99.90;;;;;;5070261;28;20186;-73
2023/12/12 09:33:15;;;;;;;0.77;0.60;;;9.50;99.90;;;;;;5069221;28;20426;-73
2023/12/12 09:35:41;;;;;;;1.00;0.50;;;9.50;99.90;;;;;;5068927;28;20635;-72
2023/12/12 09:38:06;;;;;;;2.70;0.53;;;9.60;99.90;;;;;;5070386;28;20300;-72
2023/12/12 09:40:35;;;;;;;0.90;0.60;;;9.50;99.90;;;;;;5068594;28;20195;-72
2023/12/12 09:43:03;;;;;;;0.80;0.50;;;9.50;99.90;;;;;;5069880;28;20207;-72
2023/12/12 09:45:30;;;;;;;1.13;0.60;;;9.50;99.90;;;;;;5068825;28;20429;-71
2023/12/12 09:47:56;;;;;;;3.03;0.50;;;9.40;99.90;;;;;;5070080;28;20460;-72
2023/12/12 09:50:21;;;;;;;0.70;0.40;;;9.40;99.90;;;;;;5068669;28;20429;-70
2023/12/12 09:52:48;;;;;;;1.47;0.90;;;9.40;99.90;;;;;;5070390;28;20183;-72
2023/12/12 09:55:14;;;;;;;1.00;0.70;;;9.40;99.90;;;;;;5070196;28;20440;-72
2023/12/12 09:57:40;;;;;;;0.90;0.80;;;9.40;99.90;;;;;;5068375;28;20442;-71
2023/12/12 10:00:08;;;;;;;0.70;0.40;;;9.40;99.90;;;;;;5068608;28;20191;-72
2023/12/12 10:02:35;;;;;;;6.10;0.60;;;9.50;99.90;;;;;;5070629;28;20504;-72
2023/12/12 10:05:09;;;;;;;0.87;0.53;;;9.50;99.90;;;;;;5070348;28;20442;-72
2023/12/12 10:07:35;;;;;;;1.10;0.50;;;9.40;99.90;;;;;;5069982;28;21091;-72
2023/12/12 10:10:04;;;;;;;0.70;0.40;;;9.40;99.90;;;;;;5068403;28;20434;-72
2023/12/12 10:12:30;;;;;;;0.70;0.50;;;9.40;99.90;;;;;;5069357;28;20419;-69
2023/12/12 10:14:56;;;;;;;0.77;0.63;;;9.40;99.90;;;;;;5067777;28;20430;-72
2023/12/12 10:17:24;;;;;;;0.80;0.40;;;9.40;99.90;;;;;;5069327;28;20930;-72
2023/12/12 10:20:03;;;;;;;0.70;0.40;;;9.40;99.90;;;;;;5068023;28;20192;-71
2023/12/12 10:22:30;;;;;;;0.90;0.70;;;9.40;99.90;;;;;;5069542;28;20429;-71
2023/12/12 10:25:10;;;;;;;0.70;0.40;;;9.30;99.90;;;;;;5069072;28;20458;-71
2023/12/12 10:27:43;;;;;;;0.70;0.40;;;9.30;99.90;;;;;;5067563;28;20441;-71
2023/12/12 10:30:11;;;;;;;0.90;0.50;;;9.40;99.90;;;;;;5068825;28;20436;-71
2023/12/12 10:32:37;;;;;;;1.10;0.40;;;9.40;99.90;;;;;;5067633;28;20430;-71
2023/12/12 10:35:03;;;;;;;1.03;0.40;;;9.40;99.90;;;;;;5069120;28;20417;-72
2023/12/12 10:37:28;;;;;;;0.73;0.47;;;9.40;99.90;;;;;;5069114;28;20460;-71
2023/12/12 10:39:54;;;;;;;0.93;0.40;;;9.40;99.90;;;;;;5069142;28;20427;-71
2023/12/12 10:42:19;;;;;;;0.80;0.40;;;9.40;99.90;;;;;;5069153;28;20181;-72
2023/12/12 10:44:51;;;;;;;1.00;0.50;;;9.40;99.90;;;;;;5069136;28;20246;-71
2023/12/12 10:47:18;;;;;;;0.70;0.40;;;9.50;99.90;;;;;;5069267;28;20265;-71
2023/12/12 10:49:48;;;;;;;0.63;0.40;;;9.50;99.90;;;;;;5051077;28;20445;-72
2023/12/12 10:52:15;;;;;;;0.80;0.40;;;9.50;99.90;;;;;;5068910;28;20409;-72
2023/12/12 10:54:43;;;;;;;0.60;0.30;;;9.50;99.90;;;;;;5067884;28;20438;-71
2023/12/12 10:57:10;;;;;;;0.70;0.40;;;9.50;99.90;;;;;;5050797;28;20841;-72
2023/12/12 10:59:37;;;;;;;1.10;0.40;;;9.50;99.90;;;;;;5068967;28;20440;-70
2023/12/12 11:02:04;;;;;;;0.60;0.40;;;9.50;99.90;;;;;;5069116;28;20414;-72
2023/12/12 11:04:30;;;;;;;0.80;0.40;;;9.50;99.90;;;;;;5068881;28;20458;-72
2023/12/12 11:06:56;;;;;;;0.73;0.50;;;9.50;99.90;;;;;;5068822;28;20526;-72
2023/12/12 11:09:22;;;;;;;0.70;0.40;;;9.60;99.90;;;;;;5068948;28;20426;-72
2023/12/12 11:11:51;;;;;;;1.70;0.50;;;9.60;99.90;;;;;;5050643;28;20465;-72
2023/12/12 11:14:19;;;;;;;0.60;0.40;;;9.60;99.90;;;;;;5068982;28;20194;-71
2023/12/12 11:16:47;;;;;;;1.00;0.50;;;9.60;99.90;;;;;;5066849;28;20513;-71
2023/12/12 11:19:16;;;;;;;1.67;1.00;;;9.50;99.90;;;;;;5068626;28;20433;-71
2023/12/12 11:21:47;;;;;;;1.43;1.20;;;9.60;99.90;;;;;;5068839;28;20421;-72
2023/12/12 11:24:14;;;;;;;1.40;1.30;;;9.70;99.90;;;;;;5066949;28;20475;-72
2023/12/12 11:26:45;;;;;;;2.37;0.63;;;9.60;99.90;;;;;;5068354;28;20444;-72
2023/12/12 11:29:15;;;;;;;0.80;0.40;;;9.70;99.90;;;;;;5068393;28;20893;-71
2023/12/12 11:32:00;;;;;;;1.10;0.40;;;9.70;99.90;;;;;;5068613;28;20421;-71
2023/12/12 11:34:34;;;;;;;0.70;0.30;;;9.70;99.90;;;;;;5068400;28;20456;-73
2023/12/12 11:37:00;;;;;;;0.60;0.30;;;9.70;99.90;;;;;;5068238;28;20942;-73
2023/12/12 11:39:54;;;;;;;0.60;0.30;;;9.70;99.90;;;;;;5066991;28;20434;-73
2023/12/12 11:42:22;;;;;;;0.70;0.40;;;9.80;99.90;;;;;;5062738;28;20286;-71
2023/12/12 11:44:54;;;;;;;0.77;0.50;;;9.80;99.90;;;;;;5066710;28;20468;-73
2023/12/12 11:47:21;;;;;;;0.70;0.40;;;9.80;99.90;;;;;;5066219;28;20442;-72
2023/12/12 11:49:50;;;;;;;0.80;0.57;;;9.80;99.90;;;;;;5067239;28;20798;-72
2023/12/12 11:52:38;;;;;;;1.00;0.40;;;9.90;99.90;;;;;;5067164;28;20814;-72
2023/12/12 11:55:10;;;;;;;2.10;0.50;;;9.90;99.90;;;;;;5065227;28;20440;-72
2023/12/12 11:57:36;;;;;;;0.70;0.40;;;10.00;99.90;;;;;;5066989;28;20980;-73
2023/12/12 12:00:03;;;;;;;1.17;0.40;;;10.00;99.90;;;;;;5065903;28;20441;-73
2023/12/12 12:02:30;;;;;;;0.60;0.30;;;10.10;99.90;;;;;;5067069;28;20443;-72
2023/12/12 12:04:55;;;;;;;0.70;0.40;;;10.10;99.90;;;;;;5065659;28;21056;-72
2023/12/12 12:07:21;;;;;;;1.13;0.40;;;10.10;99.90;;;;;;5048795;28;20525;-72
2023/12/12 12:09:49;;;;;;;0.70;0.50;;;10.20;99.90;;;;;;5066846;28;20184;-72
2023/12/12 12:12:16;;;;;;;1.57;0.50;;;10.20;99.90;;;;;;5066922;28;20484;-72
2023/12/12 12:14:41;;;;;;;1.63;0.70;;;10.20;99.90;;;;;;5067074;28;20797;-71
2023/12/12 12:17:08;;;;;;;0.80;0.50;;;10.10;99.90;;;;;;5066824;28;20441;-72
2023/12/12 12:19:34;;;;;;;1.60;0.50;;;10.20;99.90;;;;;;5066875;28;20721;-71
2023/12/12 12:22:05;;;;;;;1.27;0.50;;;10.20;99.90;;;;;;5065285;28;20430;-71
2023/12/12 12:24:32;;;;;;;0.80;0.57;;;10.20;99.90;;;;;;5065169;28;20481;-72
2023/12/12 12:26:58;;;;;;;0.90;0.47;;;10.20;99.90;;;;;;5066496;28;20437;-72
2023/12/12 12:29:25;;;;;;;0.70;0.40;;;10.10;99.90;;;;;;5065971;28;20417;-72
2023/12/12 12:31:52;;;;;;;2.50;0.70;;;10.10;99.90;;;;;;5065191;28;20427;-73
2023/12/12 12:34:22;;;;;;;0.80;0.43;;;10.00;99.90;;;;;;5066671;28;20426;-72
2023/12/12 12:36:53;;;;;;;0.80;0.60;;;10.00;99.90;;;;;;5065082;28;20967;-72
2023/12/12 12:39:19;;;;;;;0.80;0.53;;;10.00;99.90;;;;;;5066635;28;20419;-72
2023/12/12 12:41:52;;;;;;;0.80;0.60;;;10.00;99.90;;;;;;5066860;28;20854;-72
2023/12/12 12:44:18;;;;;;;0.73;0.50;;;9.90;99.90;;;;;;5066418;28;20468;-72
2023/12/12 12:46:53;;;;;;;4.30;1.00;;;10.00;99.90;;;;;;5066411;28;20484;-71
2023/12/12 12:49:19;;;;;;;0.70;0.50;;;10.10;99.90;;;;;;5066493;28;20182;-72
2023/12/12 12:51:48;;;;;;;0.97;0.50;;;10.10;99.90;;;;;;5066712;28;20851;-72